createdAt,value
2018-08-25T00:00:02.766Z,48.00
2018-08-25T00:02:29.891Z,47.70
2018-08-25T00:04:57.027Z,48.00
2018-08-25T00:07:25.180Z,48.30
2018-08-25T00:09:52.457Z,48.50
2018-08-25T00:12:19.779Z,48.80
2018-08-25T00:14:47.019Z,48.90
2018-08-25T00:17:14.222Z,49.00
2018-08-25T00:19:41.338Z,49.30
2018-08-25T00:22:08.482Z,49.60
2018-08-25T00:24:35.623Z,49.90
2018-08-25T00:27:02.741Z,49.80
2018-08-25T00:29:29.863Z,49.80
2018-08-25T00:31:56.962Z,49.40
2018-08-25T00:34:24.141Z,49.30
2018-08-25T00:36:51.333Z,49.20
2018-08-25T00:39:18.529Z,49.10
2018-08-25T00:41:45.967Z,49.10
2018-08-25T00:44:13.138Z,48.90
2018-08-25T00:46:40.347Z,49.20
2018-08-25T00:49:07.528Z,49.90
2018-08-25T00:51:34.793Z,50.30
2018-08-25T00:54:01.920Z,50.80
2018-08-25T00:56:29.047Z,51.00
2018-08-25T00:58:56.287Z,51.00
2018-08-25T01:01:23.493Z,51.10
2018-08-25T01:03:50.711Z,51.30
2018-08-25T01:06:17.937Z,51.20
2018-08-25T01:08:45.093Z,51.20
2018-08-25T01:11:12.317Z,51.50
2018-08-25T01:13:39.486Z,51.30
2018-08-25T01:16:06.621Z,51.20
2018-08-25T01:18:33.754Z,51.20
2018-08-25T01:21:00.922Z,51.20
2018-08-25T01:23:28.059Z,51.20
2018-08-25T01:25:55.166Z,51.40
2018-08-25T01:28:22.381Z,51.70
2018-08-25T01:30:49.791Z,52.50
2018-08-25T01:33:17.047Z,52.30
2018-08-25T01:35:44.173Z,52.90
2018-08-25T01:38:11.342Z,53.00
2018-08-25T01:40:38.484Z,53.30
2018-08-25T01:43:05.694Z,53.60
2018-08-25T01:45:32.804Z,54.10
2018-08-25T01:47:59.906Z,53.60
2018-08-25T01:50:27.032Z,54.20
2018-08-25T01:52:54.254Z,54.50
2018-08-25T01:55:21.419Z,54.80
2018-08-25T01:57:48.837Z,54.80
2018-08-25T02:00:16.003Z,55.10
2018-08-25T02:02:43.128Z,55.10
2018-08-25T02:05:10.202Z,55.20
2018-08-25T02:07:37.310Z,55.50
2018-08-25T02:10:04.818Z,55.80
2018-08-25T02:12:32.007Z,56.60
2018-08-25T02:14:59.385Z,57.10
2018-08-25T02:17:26.644Z,57.30
2018-08-25T02:19:53.765Z,57.90
2018-08-25T02:22:20.915Z,59.10
2018-08-25T02:24:48.077Z,59.30
2018-08-25T02:27:15.427Z,59.90
2018-08-25T02:29:42.516Z,60.70
2018-08-25T02:32:09.627Z,61.30
2018-08-25T02:34:36.824Z,61.70
2018-08-25T02:37:04.031Z,61.80
2018-08-25T02:39:31.158Z,62.00
2018-08-25T02:41:58.275Z,61.80
2018-08-25T02:44:25.370Z,61.60
2018-08-25T02:46:52.558Z,61.50
2018-08-25T02:49:19.703Z,61.30
2018-08-25T02:51:46.847Z,61.60
2018-08-25T02:54:13.999Z,61.60
2018-08-25T02:56:41.115Z,61.60
2018-08-25T02:59:08.216Z,62.30
2018-08-25T03:01:35.333Z,62.70
2018-08-25T03:04:02.443Z,62.80
2018-08-25T03:06:29.552Z,62.90
2018-08-25T03:08:56.653Z,62.60
2018-08-25T03:11:23.786Z,63.40
2018-08-25T03:13:51.166Z,63.10
2018-08-25T03:16:18.288Z,62.90
2018-08-25T03:18:45.431Z,63.40
2018-08-25T03:21:12.527Z,63.50
2018-08-25T03:23:39.643Z,64.00
2018-08-25T03:26:06.791Z,64.30
2018-08-25T03:28:33.912Z,64.70
2018-08-25T03:31:01.045Z,65.10
2018-08-25T03:33:28.244Z,65.70
2018-08-25T03:35:55.566Z,66.30
2018-08-25T03:38:22.682Z,67.10
2018-08-25T03:40:49.940Z,66.70
2018-08-25T03:43:17.133Z,67.00
2018-08-25T03:45:44.292Z,68.00
2018-08-25T03:48:11.459Z,68.30
2018-08-25T03:50:38.597Z,69.00
2018-08-25T03:53:05.927Z,69.80
2018-08-25T03:55:33.324Z,71.00
2018-08-25T03:58:00.390Z,70.60
2018-08-25T04:00:27.503Z,70.90
2018-08-25T04:02:54.672Z,71.30
2018-08-25T04:05:21.892Z,71.60
2018-08-25T04:07:49.087Z,71.70
2018-08-25T04:10:16.357Z,71.90
2018-08-25T04:12:43.503Z,72.20
2018-08-25T04:15:10.671Z,71.70
2018-08-25T04:17:37.769Z,72.00
2018-08-25T04:20:04.966Z,72.20
2018-08-25T04:22:32.093Z,72.10
2018-08-25T04:24:59.286Z,72.00
2018-08-25T04:27:26.427Z,70.90
2018-08-25T04:29:53.535Z,71.20
2018-08-25T04:32:20.959Z,71.90
2018-08-25T04:34:48.126Z,71.90
2018-08-25T04:37:15.300Z,72.50
2018-08-25T04:39:42.455Z,73.00
2018-08-25T04:42:09.589Z,72.50
2018-08-25T04:44:36.694Z,72.30
2018-08-25T04:47:03.885Z,72.50
2018-08-25T04:49:31.000Z,72.30
2018-08-25T04:51:58.189Z,72.20
2018-08-25T04:54:25.356Z,72.20
2018-08-25T04:56:52.454Z,72.40
2018-08-25T04:59:19.632Z,72.60
2018-08-25T05:01:47.040Z,72.50
2018-08-25T05:04:14.130Z,72.30
2018-08-25T05:06:41.264Z,72.50
2018-08-25T05:09:09.523Z,72.50
2018-08-25T05:11:36.610Z,72.50
2018-08-25T05:14:03.786Z,72.80
2018-08-25T05:16:30.967Z,72.60
2018-08-25T05:18:58.134Z,72.70
2018-08-25T05:21:25.255Z,72.10
2018-08-25T05:23:52.418Z,72.40
2018-08-25T05:26:19.630Z,72.30
2018-08-25T05:28:46.876Z,72.30
2018-08-25T05:31:14.002Z,72.60
2018-08-25T05:33:41.129Z,72.20
2018-08-25T05:36:08.270Z,71.70
2018-08-25T05:38:35.391Z,71.90
2018-08-25T05:41:02.485Z,72.00
2018-08-25T05:43:29.578Z,72.10
2018-08-25T05:45:56.690Z,72.20
2018-08-25T05:48:23.790Z,72.40
2018-08-25T05:50:51.015Z,72.80
2018-08-25T05:53:18.199Z,73.20
2018-08-25T05:55:45.314Z,73.20
2018-08-25T05:58:12.791Z,74.30
2018-08-25T06:00:40.037Z,74.40
2018-08-25T06:03:07.225Z,76.20
2018-08-25T06:05:34.347Z,76.40
2018-08-25T06:08:01.481Z,76.50
2018-08-25T06:10:28.607Z,77.20
2018-08-25T06:12:55.754Z,77.70
2018-08-25T06:15:22.986Z,78.40
2018-08-25T06:17:50.379Z,76.60
2018-08-25T06:20:17.438Z,78.10
2018-08-25T06:22:44.558Z,78.50
2018-08-25T06:25:11.710Z,79.80
2018-08-25T06:27:38.846Z,80.00
2018-08-25T06:30:06.187Z,79.50
2018-08-25T06:32:33.317Z,82.30
2018-08-25T06:35:00.472Z,84.60
2018-08-25T06:37:27.566Z,85.50
2018-08-25T06:39:54.697Z,87.00
2018-08-25T06:42:21.900Z,89.80
2018-08-25T06:44:49.228Z,90.30
2018-08-25T06:47:16.518Z,92.80
2018-08-25T06:49:43.878Z,93.20
2018-08-25T06:52:11.015Z,94.00
2018-08-25T06:54:38.115Z,95.00
2018-08-25T06:57:05.263Z,95.10
2018-08-25T06:59:32.459Z,96.00
2018-08-25T07:01:59.536Z,96.90
2018-08-25T07:04:26.692Z,97.20
2018-08-25T07:06:53.803Z,99.50
2018-08-25T07:09:20.972Z,99.90
2018-08-25T07:11:48.128Z,99.90
2018-08-25T07:14:22.054Z,99.90
2018-08-25T07:16:49.287Z,99.90
2018-08-25T07:19:16.451Z,99.90
2018-08-25T07:21:43.591Z,99.90
2018-08-25T07:24:10.762Z,99.90
2018-08-25T07:26:37.926Z,99.90
2018-08-25T07:29:05.530Z,99.90
2018-08-25T07:31:32.702Z,99.90
2018-08-25T07:33:59.859Z,99.90
2018-08-25T07:36:26.981Z,98.30
2018-08-25T07:38:54.118Z,97.30
2018-08-25T07:41:21.341Z,96.10
2018-08-25T07:43:48.515Z,94.40
2018-08-25T07:46:15.730Z,95.10
2018-08-25T07:48:42.982Z,95.60
2018-08-25T07:51:10.038Z,97.30
2018-08-25T07:53:37.165Z,96.20
2018-08-25T07:56:04.684Z,96.00
2018-08-25T07:58:31.875Z,96.20
2018-08-25T08:00:59.164Z,96.20
2018-08-25T08:03:26.302Z,96.50
2018-08-25T08:05:53.407Z,95.70
2018-08-25T08:08:20.594Z,94.40
2018-08-25T08:10:47.776Z,94.90
2018-08-25T08:13:14.898Z,94.60
2018-08-25T08:15:42.059Z,92.90
2018-08-25T08:18:09.170Z,89.60
2018-08-25T08:20:36.266Z,84.40
2018-08-25T08:23:03.410Z,79.30
2018-08-25T08:25:30.886Z,75.50
2018-08-25T08:27:58.067Z,74.90
2018-08-25T08:30:25.239Z,75.60
2018-08-25T08:32:52.464Z,78.40
2018-08-25T08:35:19.645Z,81.10
2018-08-25T08:37:46.928Z,81.40
2018-08-25T08:40:14.078Z,79.10
2018-08-25T08:42:41.190Z,73.20
2018-08-25T08:45:08.322Z,71.40
2018-08-25T08:47:35.799Z,72.70
2018-08-25T08:50:03.398Z,76.30
2018-08-25T08:52:30.434Z,76.60
2018-08-25T08:54:57.583Z,77.70
2018-08-25T08:57:24.768Z,78.50
2018-08-25T08:59:51.903Z,78.80
2018-08-25T09:02:19.117Z,76.20
2018-08-25T09:04:46.446Z,74.20
2018-08-25T09:07:13.587Z,72.00
2018-08-25T09:09:40.702Z,64.70
2018-08-25T09:12:07.880Z,58.40
2018-08-25T09:14:35.058Z,55.40
2018-08-25T09:17:02.204Z,55.70
2018-08-25T09:19:29.410Z,54.10
2018-08-25T09:21:56.554Z,54.40
2018-08-25T09:24:23.683Z,54.10
2018-08-25T09:26:50.890Z,55.00
2018-08-25T09:29:18.133Z,53.90
2018-08-25T09:31:45.309Z,54.60
2018-08-25T09:34:12.454Z,53.40
2018-08-25T09:36:39.744Z,53.90
2018-08-25T09:39:08.553Z,54.20
2018-08-25T09:41:35.709Z,53.00
2018-08-25T09:44:02.892Z,54.60
2018-08-25T09:46:30.046Z,56.20
2018-08-25T09:48:57.160Z,53.60
2018-08-25T09:51:24.283Z,53.00
2018-08-25T09:53:51.408Z,54.60
2018-08-25T09:56:18.606Z,52.30
2018-08-25T09:58:45.774Z,52.90
2018-08-25T10:01:18.750Z,52.60
2018-08-25T10:03:45.941Z,51.90
2018-08-25T10:06:13.073Z,52.00
2018-08-25T10:08:40.207Z,52.50
2018-08-25T10:11:07.431Z,51.90
2018-08-25T10:13:34.600Z,51.60
2018-08-25T10:16:01.714Z,50.30
2018-08-25T10:18:28.866Z,49.80
2018-08-25T10:20:55.998Z,50.50
2018-08-25T10:23:23.199Z,48.90
2018-08-25T10:25:50.444Z,49.10
2018-08-25T10:28:17.798Z,48.60
2018-08-25T10:30:44.936Z,48.40
2018-08-25T10:33:12.138Z,45.80
2018-08-25T10:35:39.288Z,43.80
2018-08-25T10:38:06.438Z,44.50
2018-08-25T10:40:33.555Z,44.20
2018-08-25T10:43:00.699Z,44.00
2018-08-25T10:45:27.831Z,45.10
2018-08-25T10:47:55.057Z,45.30
2018-08-25T10:50:22.266Z,45.30
2018-08-25T10:52:49.410Z,45.40
2018-08-25T10:55:16.710Z,45.40
2018-08-25T10:57:43.872Z,44.90
2018-08-25T11:00:11.086Z,43.70
2018-08-25T11:02:38.140Z,43.10
2018-08-25T11:05:05.324Z,43.30
2018-08-25T11:07:32.474Z,43.00
2018-08-25T11:09:59.650Z,41.40
2018-08-25T11:12:26.778Z,41.20
2018-08-25T11:14:53.931Z,41.20
2018-08-25T11:17:21.240Z,41.90
2018-08-25T11:19:48.522Z,41.50
2018-08-25T11:22:15.820Z,41.10
2018-08-25T11:24:42.943Z,41.20
2018-08-25T11:27:10.126Z,41.50
2018-08-25T11:29:37.273Z,41.20
2018-08-25T11:32:04.675Z,41.00
2018-08-25T11:34:31.896Z,41.40
2018-08-25T11:36:59.110Z,42.20
2018-08-25T11:39:26.327Z,41.20
2018-08-25T11:41:53.555Z,40.90
2018-08-25T11:44:20.774Z,40.90
2018-08-25T11:46:48.106Z,41.00
2018-08-25T11:49:15.366Z,41.20
2018-08-25T11:51:42.559Z,40.40
2018-08-25T11:54:09.842Z,40.10
2018-08-25T11:56:37.109Z,39.40
2018-08-25T11:59:04.386Z,39.40
2018-08-25T12:01:32.211Z,38.50
2018-08-25T12:03:59.471Z,37.90
2018-08-25T12:06:26.695Z,37.70
2018-08-25T12:08:53.956Z,38.20
2018-08-25T12:11:21.301Z,38.20
2018-08-25T12:13:48.666Z,37.60
2018-08-25T12:16:15.993Z,36.80
2018-08-25T12:18:43.135Z,37.20
2018-08-25T12:21:10.294Z,37.00
2018-08-25T12:23:37.635Z,37.00
2018-08-25T12:26:05.034Z,36.40
2018-08-25T12:28:32.251Z,37.20
2018-08-25T12:30:59.459Z,37.50
2018-08-25T12:33:26.696Z,37.60
2018-08-25T12:35:53.887Z,37.10
2018-08-25T12:38:21.208Z,36.50
2018-08-25T12:40:48.577Z,36.40
2018-08-25T12:43:15.871Z,36.80
2018-08-25T12:45:43.075Z,36.30
2018-08-25T12:48:10.345Z,36.10
2018-08-25T12:50:37.541Z,35.60
2018-08-25T12:53:04.760Z,36.60
2018-08-25T12:55:31.964Z,38.20
2018-08-25T12:57:59.263Z,38.70
2018-08-25T13:00:26.496Z,38.80
2018-08-25T13:02:53.808Z,39.00
2018-08-25T13:05:21.035Z,38.70
2018-08-25T13:07:48.828Z,38.60
2018-08-25T13:10:16.079Z,39.00
2018-08-25T13:12:43.295Z,38.90
2018-08-25T13:15:10.488Z,39.20
2018-08-25T13:17:37.690Z,39.10
2018-08-25T13:20:05.002Z,38.50
2018-08-25T13:22:32.207Z,39.60
2018-08-25T13:24:59.483Z,40.90
2018-08-25T13:27:26.658Z,40.90
2018-08-25T13:29:53.775Z,39.80
2018-08-25T13:32:21.032Z,40.00
2018-08-25T13:34:48.235Z,39.50
2018-08-25T13:37:15.377Z,39.90
2018-08-25T13:39:42.485Z,40.00
2018-08-25T13:42:09.650Z,39.60
2018-08-25T13:44:36.772Z,39.00
2018-08-25T13:47:03.887Z,38.50
2018-08-25T13:49:31.031Z,38.40
2018-08-25T13:51:58.136Z,41.20
2018-08-25T13:54:25.266Z,37.70
2018-08-25T13:56:52.456Z,38.50
2018-08-25T13:59:19.714Z,38.70
2018-08-25T14:01:46.868Z,38.50
2018-08-25T14:04:14.049Z,39.10
2018-08-25T14:06:41.177Z,39.30
2018-08-25T14:09:08.720Z,40.10
2018-08-25T14:11:35.913Z,40.30
2018-08-25T14:14:03.096Z,39.80
2018-08-25T14:16:30.218Z,39.20
2018-08-25T14:18:57.347Z,38.90
2018-08-25T14:21:24.595Z,39.30
2018-08-25T14:23:51.804Z,39.20
2018-08-25T14:26:18.949Z,38.90
2018-08-25T14:28:46.121Z,38.80
2018-08-25T14:31:13.223Z,39.80
2018-08-25T14:33:40.378Z,39.40
2018-08-25T14:36:07.527Z,40.00
2018-08-25T14:38:34.671Z,39.30
2018-08-25T14:41:01.795Z,39.40
2018-08-25T14:43:28.931Z,39.10
2018-08-25T14:45:56.287Z,39.20
2018-08-25T14:48:23.546Z,38.50
2018-08-25T14:50:50.707Z,38.90
2018-08-25T14:53:17.930Z,39.10
2018-08-25T14:55:45.094Z,38.10
2018-08-25T14:58:13.109Z,38.30
2018-08-25T15:00:40.258Z,38.20
2018-08-25T15:03:07.792Z,36.80
2018-08-25T15:05:35.111Z,37.10
2018-08-25T15:08:02.338Z,37.70
2018-08-25T15:10:29.439Z,36.90
2018-08-25T15:12:57.102Z,37.20
2018-08-25T15:15:24.311Z,37.00
2018-08-25T15:17:51.543Z,37.40
2018-08-25T15:20:18.752Z,38.00
2018-08-25T15:22:46.006Z,38.20
2018-08-25T15:25:13.338Z,37.60
2018-08-25T15:27:40.534Z,37.80
2018-08-25T15:30:07.680Z,38.10
2018-08-25T15:32:34.779Z,38.50
2018-08-25T15:35:01.897Z,38.60
2018-08-25T15:37:29.011Z,38.60
2018-08-25T15:39:56.149Z,38.80
2018-08-25T15:42:23.347Z,39.00
2018-08-25T15:44:50.523Z,39.60
2018-08-25T15:47:17.699Z,38.70
2018-08-25T15:49:44.823Z,39.50
2018-08-25T15:52:12.040Z,37.80
2018-08-25T15:54:39.230Z,37.80
2018-08-25T15:57:06.679Z,38.00
2018-08-25T15:59:34.074Z,38.30
2018-08-25T16:02:01.202Z,37.90
2018-08-25T16:04:28.375Z,38.10
2018-08-25T16:06:55.623Z,37.00
2018-08-25T16:09:22.819Z,37.90
2018-08-25T16:11:50.218Z,37.60
2018-08-25T16:14:17.342Z,37.00
2018-08-25T16:16:44.502Z,37.60
2018-08-25T16:19:11.647Z,37.80
2018-08-25T16:21:38.779Z,37.80
2018-08-25T16:24:05.945Z,38.50
2018-08-25T16:26:33.055Z,38.10
2018-08-25T16:29:00.228Z,38.40
2018-08-25T16:31:27.380Z,38.40
2018-08-25T16:33:54.494Z,37.60
2018-08-25T16:36:21.651Z,37.40
2018-08-25T16:38:48.960Z,37.40
2018-08-25T16:41:16.148Z,37.10
2018-08-25T16:43:43.271Z,37.20
2018-08-25T16:46:10.409Z,37.20
2018-08-25T16:48:37.531Z,37.50
2018-08-25T16:51:04.946Z,37.70
2018-08-25T16:53:32.068Z,38.10
2018-08-25T16:55:59.267Z,37.80
2018-08-25T16:58:26.378Z,37.90
2018-08-25T17:00:53.515Z,38.20
2018-08-25T17:03:20.658Z,37.80
2018-08-25T17:05:47.806Z,38.30
2018-08-25T17:08:14.907Z,38.30
2018-08-25T17:10:42.217Z,38.30
2018-08-25T17:13:09.359Z,38.70
2018-08-25T17:15:36.545Z,39.60
2018-08-25T17:18:03.846Z,39.50
2018-08-25T17:20:31.016Z,39.90
2018-08-25T17:22:58.133Z,40.00
2018-08-25T17:25:25.251Z,41.20
2018-08-25T17:27:52.437Z,41.20
2018-08-25T17:30:19.590Z,41.30
2018-08-25T17:32:46.762Z,41.90
2018-08-25T17:35:13.871Z,42.30
2018-08-25T17:37:41.014Z,42.80
2018-08-25T17:40:08.237Z,42.80
2018-08-25T17:42:35.516Z,43.50
2018-08-25T17:45:02.771Z,51.00
2018-08-25T17:47:29.980Z,64.30
2018-08-25T17:49:57.535Z,70.50
2018-08-25T17:52:24.895Z,68.70
2018-08-25T17:54:52.114Z,66.30
2018-08-25T17:57:19.534Z,67.70
2018-08-25T17:59:46.811Z,67.40
2018-08-25T18:02:14.045Z,67.00
2018-08-25T18:04:41.298Z,66.90
2018-08-25T18:07:08.539Z,66.70
2018-08-25T18:09:35.715Z,65.90
2018-08-25T18:12:02.983Z,65.50
2018-08-25T18:14:30.223Z,65.80
2018-08-25T18:16:57.476Z,66.60
2018-08-25T18:19:24.714Z,67.10
2018-08-25T18:21:51.870Z,67.40
2018-08-25T18:24:19.050Z,66.20
2018-08-25T18:26:46.239Z,65.90
2018-08-25T18:29:13.371Z,67.10
2018-08-25T18:31:40.503Z,66.60
2018-08-25T18:34:07.693Z,66.80
2018-08-25T18:36:34.854Z,68.10
2018-08-25T18:39:02.081Z,68.40
2018-08-25T18:41:29.227Z,68.20
2018-08-25T18:43:56.631Z,68.90
2018-08-25T18:46:23.788Z,68.80
2018-08-25T18:48:50.911Z,69.00
2018-08-25T18:51:18.053Z,69.20
2018-08-25T18:53:45.172Z,69.40
2018-08-25T18:56:12.342Z,69.30
2018-08-25T18:58:39.495Z,68.50
2018-08-25T19:01:06.655Z,68.40
2018-08-25T19:03:33.833Z,68.70
2018-08-25T19:06:00.998Z,68.70
2018-08-25T19:08:28.145Z,68.20
2018-08-25T19:10:55.267Z,67.60
2018-08-25T19:13:22.518Z,67.90
2018-08-25T19:15:49.699Z,67.20
2018-08-25T19:18:16.880Z,67.30
2018-08-25T19:20:44.048Z,67.20
2018-08-25T19:23:11.376Z,67.30
2018-08-25T19:25:38.502Z,67.40
2018-08-25T19:28:05.616Z,67.00
2018-08-25T19:30:32.739Z,66.80
2018-08-25T19:32:59.847Z,66.30
2018-08-25T19:35:27.060Z,66.90
2018-08-25T19:37:54.237Z,67.00
2018-08-25T19:40:21.386Z,67.40
2018-08-25T19:42:48.561Z,67.70
2018-08-25T19:45:16.265Z,67.50
2018-08-25T19:47:43.366Z,67.50
2018-08-25T19:50:10.527Z,68.00
2018-08-25T19:52:37.691Z,68.50
2018-08-25T19:55:04.871Z,68.00
2018-08-25T19:57:31.977Z,68.60
2018-08-25T19:59:59.123Z,69.10
2018-08-25T20:02:26.247Z,69.00
2018-08-25T20:04:53.384Z,69.10
2018-08-25T20:07:20.579Z,69.20
2018-08-25T20:09:47.942Z,69.90
2018-08-25T20:12:15.159Z,69.80
2018-08-25T20:14:42.647Z,69.70
2018-08-25T20:17:09.830Z,69.80
2018-08-25T20:19:36.979Z,71.30
2018-08-25T20:22:04.512Z,72.10
2018-08-25T20:24:31.746Z,71.30
2018-08-25T20:26:58.873Z,71.60
2018-08-25T20:29:25.987Z,72.90
2018-08-25T20:31:53.210Z,73.00
2018-08-25T20:34:20.404Z,73.70
2018-08-25T20:36:47.598Z,74.20
2018-08-25T20:39:14.706Z,74.40
2018-08-25T20:41:41.820Z,74.80
2018-08-25T20:44:08.951Z,75.50
2018-08-25T20:46:36.103Z,75.80
2018-08-25T20:49:04.370Z,76.60
2018-08-25T20:51:31.703Z,77.70
2018-08-25T20:53:59.082Z,77.50
2018-08-25T20:56:26.240Z,78.40
2018-08-25T20:58:53.387Z,77.40
2018-08-25T21:01:20.551Z,77.40
2018-08-25T21:03:47.703Z,77.30
2018-08-25T21:06:14.810Z,77.40
2018-08-25T21:08:41.951Z,77.50
2018-08-25T21:11:09.139Z,78.00
2018-08-25T21:13:36.329Z,77.70
2018-08-25T21:16:03.581Z,77.00
2018-08-25T21:18:30.711Z,76.30
2018-08-25T21:20:57.831Z,76.30
2018-08-25T21:23:25.012Z,76.60
2018-08-25T21:25:52.222Z,77.60
2018-08-25T21:28:19.372Z,78.20
2018-08-25T21:30:46.567Z,78.30
2018-08-25T21:33:13.643Z,79.10
2018-08-25T21:35:40.744Z,80.10
2018-08-25T21:38:08.554Z,80.90
2018-08-25T21:40:35.911Z,80.60
2018-08-25T21:43:03.054Z,80.90
2018-08-25T21:45:30.180Z,81.70
2018-08-25T21:47:57.299Z,81.30
2018-08-25T21:50:24.431Z,81.30
2018-08-25T21:52:51.636Z,81.20
2018-08-25T21:55:18.845Z,81.10
2018-08-25T21:57:46.159Z,80.30
2018-08-25T22:00:13.370Z,80.10
2018-08-25T22:02:40.491Z,80.80
2018-08-25T22:05:07.607Z,80.60
2018-08-25T22:07:34.770Z,80.80
2018-08-25T22:10:01.917Z,81.40
2018-08-25T22:12:29.075Z,82.10
2018-08-25T22:14:56.304Z,81.90
2018-08-25T22:17:23.479Z,81.60
2018-08-25T22:19:50.657Z,81.90
2018-08-25T22:22:17.841Z,81.30
2018-08-25T22:24:44.995Z,81.60
2018-08-25T22:27:12.154Z,79.50
2018-08-25T22:29:39.260Z,79.70
2018-08-25T22:32:06.370Z,80.10
2018-08-25T22:34:33.638Z,81.10
2018-08-25T22:37:00.751Z,82.40
2018-08-25T22:39:27.878Z,83.60
2018-08-25T22:41:55.013Z,85.20
2018-08-25T22:44:22.170Z,85.50
2018-08-25T22:46:49.326Z,84.60
2018-08-25T22:49:16.486Z,86.20
2018-08-25T22:51:43.639Z,87.80
2018-08-25T22:54:10.767Z,87.80
2018-08-25T22:56:37.876Z,89.30
2018-08-25T22:59:04.993Z,90.60
2018-08-25T23:01:32.206Z,91.40
2018-08-25T23:03:59.274Z,91.80
2018-08-25T23:06:26.411Z,92.40
2018-08-25T23:08:53.641Z,93.50
2018-08-25T23:11:20.807Z,94.20
2018-08-25T23:13:48.076Z,95.00
2018-08-25T23:16:15.205Z,95.40
2018-08-25T23:18:42.410Z,95.90
2018-08-25T23:21:09.795Z,96.20
2018-08-25T23:23:36.978Z,95.80
2018-08-25T23:26:04.313Z,96.80
2018-08-25T23:28:31.466Z,98.20
2018-08-25T23:30:58.583Z,99.30
2018-08-25T23:33:25.719Z,99.90
2018-08-25T23:35:52.870Z,99.90
2018-08-25T23:38:20.079Z,99.90
2018-08-25T23:40:47.282Z,99.90
2018-08-25T23:43:14.426Z,99.90
2018-08-25T23:45:41.730Z,99.90
2018-08-25T23:48:09.035Z,99.90
2018-08-25T23:50:36.110Z,99.90
2018-08-25T23:53:03.399Z,99.90
2018-08-25T23:55:30.522Z,99.90
2018-08-25T23:57:57.623Z,99.90
